This is the latest recevied weather packets stored in our database for station/object DG0PX-12. If no packets are shown the sender has not sent any weather packets the latest 10 day(s).
| Time | Temp. | Humidity | Pressure | Rain* | Wind** | Luminosity | Snow |
|---|---|---|---|---|---|---|---|
| 1787597059 | 26.67° C | 40% | 948 hPa | - | - | - | - |
| 1787596159 | 27.22° C | 39% | 947.9 hPa | - | - | - | - |
| 1787595259 | 26.11° C | 40% | 948.1 hPa | - | - | - | - |
| 1787594359 | 26.67° C | 40% | 948 hPa | - | - | - | - |
| 1787593459 | 27.78° C | 38% | 948.2 hPa | - | - | - | - |
| 1787592558 | 28.33° C | 36% | 948.5 hPa | - | - | - | - |
| 1787591658 | 28.33° C | 36% | 948.7 hPa | - | - | - | - |
| 1787590758 | 28.89° C | 34% | 948.7 hPa | - | - | - | - |
| 1787589858 | 28.89° C | 34% | 949.1 hPa | - | - | - | - |
| 1787588958 | 26.67° C | 36% | 949.2 hPa | - | - | - | - |
| 1787588058 | 27.78° C | 35% | 949.4 hPa | - | - | - | - |
| 1787587158 | 28.33° C | 33% | 949.9 hPa | - | - | - | - |
| 1787586258 | 32.78° C | 27% | 950.3 hPa | - | - | - | - |
| 1787585358 | 30.56° C | 29% | 950.5 hPa | - | - | - | - |
| 1787584458 | 31.11° C | 28% | 950.7 hPa | - | - | - | - |
| 1787583558 | 31.67° C | 28% | 950.7 hPa | - | - | - | - |
| 1787582658 | 30° C | 30% | 950.9 hPa | - | - | - | - |
| 1787581758 | 29.44° C | 31% | 951.1 hPa | - | - | - | - |
| 1787580858 | 28.89° C | 32% | 951 hPa | - | - | - | - |
| 1787579958 | 27.22° C | 34% | 951.1 hPa | - | - | - | - |
| 1787579057 | 29.44° C | 31% | 951.4 hPa | - | - | - | - |
| 1787578157 | 27.78° C | 34% | 951.3 hPa | - | - | - | - |
| 1787577257 | 30° C | 32% | 951.4 hPa | - | - | - | - |
| 1787576357 | 32.22° C | 28% | 952 hPa | - | - | - | - |
| 1787575457 | 31.11° C | 29% | 952.1 hPa | - | - | - | - |
* Rain since midnight (hover to see other rain measurements)
** Current wind speed in m/s (hover to see current wind gust speed)